Med Antarctic — 9HA4607 — position and weather

sailwx.info

Track history (hours):
 
Tides and Currents Weather Stations Pressure Air Temp Water Temp Dewpoint Dewpoint Depression Visibility Wind Speed Wind Dir Waves Ship Positions

Med Antarctic

Last reported at 2017-Oct-19 05:30 UTC. Time now 2017-Oct-19 05:45 UTC.
Position N 41°20' E 029°32'.

Length 125 m; draft 6.4 m.

Type: Tanker. MMSI: 248315000.

Date/timePositionNaut miles runAvg speedWind from/ knotsBaromVisibWave heightAir tempDewpointWater temp
2017-Oct-19 05:30N 41°20' E 029°32'712.9
2017-Oct-19 05:00N 41°18' E 029°23'613.1
2017-Oct-19 04:30N 41°16' E 029°15'612.5
2017-Oct-19 04:00N 41°13' E 029°08'6 9.6
2017-Oct-19 03:26N 41°08' E 029°04'610.3
2017-Oct-19 02:49N 41°02' E 029°02'310.3
2017-Oct-19 02:30N 40°59' E 028°60'3 6.4
2017-Oct-19 02:00N 40°56' E 028°59'3 5.2
2017-Oct-19 01:29N 40°55' E 028°55'3 5.4
2017-Oct-19 00:59N 40°57' E 028°53'0 0.1
2017-Oct-19 00:20N 40°57' E 028°53'5 0.8
2017-Oct-18 17:27N 40°52' E 028°51'  
2017-Oct-12 23:00N 40°00' E 026°09'7 6.3
2017-Oct-12 21:58N 39°59' E 026°01'13511.8
2017-Oct-12 10:35N 37°44' E 025°49'512.6
2017-Oct-12 10:11N 37°39' E 025°50'312.1
2017-Oct-12 09:56N 37°36' E 025°51'511.7
2017-Oct-12 09:30N 37°32' E 025°52'  
Track history (hours):
 
Tides and Currents Weather Stations Pressure Air Temp Water Temp Dewpoint Dewpoint Depression Visibility Wind Speed Wind Dir Waves Ship Positions

Med Antarctic

Last reported at 2017-Oct-19 05:30 UTC. Time now 2017-Oct-19 05:45 UTC.
Position N 41°20' E 029°32'.

Length 125 m; draft 6.4 m.

Type: Tanker. MMSI: 248315000.

Date/timePositionNaut miles runAvg speedWind from/ knotsBaromVisibWave heightAir tempDewpointWater temp
2017-Oct-19 05:30N 41°20' E 029°32'712.9
2017-Oct-19 05:00N 41°18' E 029°23'613.1
2017-Oct-19 04:30N 41°16' E 029°15'612.5
2017-Oct-19 04:00N 41°13' E 029°08'6 9.6
2017-Oct-19 03:26N 41°08' E 029°04'610.3
2017-Oct-19 02:49N 41°02' E 029°02'310.3
2017-Oct-19 02:30N 40°59' E 028°60'3 6.4
2017-Oct-19 02:00N 40°56' E 028°59'3 5.2
2017-Oct-19 01:29N 40°55' E 028°55'3 5.4
2017-Oct-19 00:59N 40°57' E 028°53'0 0.1
2017-Oct-19 00:20N 40°57' E 028°53'5 0.8
2017-Oct-18 17:27N 40°52' E 028°51'  
2017-Oct-12 23:00N 40°00' E 026°09'7 6.3
2017-Oct-12 21:58N 39°59' E 026°01'13511.8
2017-Oct-12 10:35N 37°44' E 025°49'512.6
2017-Oct-12 10:11N 37°39' E 025°50'312.1
2017-Oct-12 09:56N 37°36' E 025°51'511.7
2017-Oct-12 09:30N 37°32' E 025°52'  

Dump ship's entire track history